Time;durP1;ratioP1;P1;durP2;ratioP2;P2;SDS_P1;SDS_P2;PMS_P1;PMS_P2;Temp;Humidity;BMP_temperature;BMP_pressure;BME280_temperature;BME280_humidity;BME280_pressure;Samples;Min_cycle;Max_cycle;Signal;HPM_P1;HPM_P2
2023/03/09 00:01:25;;;;;;;13.33;6.80;;;0.70;1.00;;;;;;4978715;28;20444;-51
2023/03/09 00:03:51;;;;;;;10.17;6.20;;;0.70;1.00;;;;;;4981369;28;20444;-51
2023/03/09 00:06:17;;;;;;;14.60;6.37;;;0.80;1.00;;;;;;4985208;28;20483;-51
2023/03/09 00:08:43;;;;;;;9.37;5.70;;;0.70;1.00;;;;;;4988196;28;20443;-50
2023/03/09 00:11:09;;;;;;;10.07;6.10;;;0.70;1.00;;;;;;4984366;28;20437;-51
2023/03/09 00:13:35;;;;;;;13.57;6.00;;;0.70;1.00;;;;;;4981961;28;20499;-51
2023/03/09 00:16:18;;;;;;;12.47;6.63;;;0.60;1.00;;;;;;4979172;28;20196;-51
2023/03/09 00:18:44;;;;;;;13.83;6.93;;;0.60;1.00;;;;;;4983609;28;20274;-51
2023/03/09 00:21:14;;;;;;;12.10;6.17;;;0.60;1.00;;;;;;4983191;28;21071;-50
2023/03/09 00:23:41;;;;;;;14.07;7.40;;;0.50;1.00;;;;;;4988513;28;20446;-51
2023/03/09 00:26:07;;;;;;;11.67;6.93;;;0.50;3.20;;;;;;4984136;28;20660;-50
2023/03/09 00:28:33;;;;;;;8.40;6.00;;;0.50;8.60;;;;;;4977786;28;20590;-51
2023/03/09 00:31:04;;;;;;;11.07;6.50;;;0.50;12.40;;;;;;4984039;28;24170;-50
2023/03/09 00:33:30;;;;;;;11.33;6.30;;;0.50;12.70;;;;;;4982826;28;20961;-50
2023/03/09 00:35:57;;;;;;;9.13;6.23;;;0.50;14.40;;;;;;4978528;28;20496;-49
2023/03/09 00:38:22;;;;;;;10.97;6.33;;;0.50;18.20;;;;;;4977549;28;20595;-50
2023/03/09 00:40:49;;;;;;;9.70;6.17;;;0.50;22.30;;;;;;4981223;28;20447;-50
2023/03/09 00:43:15;;;;;;;11.07;6.43;;;0.50;23.00;;;;;;4983939;28;20286;-50
2023/03/09 00:45:40;;;;;;;10.00;6.03;;;0.50;27.00;;;;;;4982990;28;21058;-50
2023/03/09 00:48:06;;;;;;;11.50;5.60;;;0.60;26.50;;;;;;4983437;28;20205;-50
2023/03/09 00:50:31;;;;;;;9.33;6.30;;;0.50;20.00;;;;;;4979917;28;20281;-50
2023/03/09 00:52:57;;;;;;;15.23;5.83;;;0.60;17.50;;;;;;4982428;28;20267;-50
2023/03/09 00:55:23;;;;;;;10.83;5.90;;;0.50;13.00;;;;;;4983257;28;20193;-49
2023/03/09 00:57:48;;;;;;;10.33;5.43;;;0.50;15.20;;;;;;4983370;28;20540;-49
2023/03/09 01:00:14;;;;;;;8.87;5.70;;;0.50;19.80;;;;;;4981024;28;20194;-50
2023/03/09 01:02:40;;;;;;;8.30;5.50;;;0.50;19.60;;;;;;4982761;28;20193;-49
2023/03/09 01:05:06;;;;;;;13.97;6.07;;;0.40;22.80;;;;;;4980656;28;20200;-49
2023/03/09 01:07:34;;;;;;;8.93;5.77;;;0.40;24.60;;;;;;4980511;28;20252;-49
2023/03/09 01:10:00;;;;;;;10.03;6.30;;;0.40;24.40;;;;;;4977965;28;20482;-50
2023/03/09 01:12:26;;;;;;;9.77;5.93;;;0.30;29.90;;;;;;4980123;28;20857;-50
2023/03/09 01:14:55;;;;;;;10.80;6.50;;;0.30;39.30;;;;;;4979607;28;20444;-50
2023/03/09 01:17:21;;;;;;;8.50;5.47;;;0.40;36.10;;;;;;4977287;28;20204;-50
2023/03/09 01:19:46;;;;;;;9.27;6.07;;;0.30;42.10;;;;;;4977623;28;20546;-50
2023/03/09 01:22:12;;;;;;;10.03;6.17;;;0.30;38.70;;;;;;4977442;28;20188;-49
2023/03/09 01:24:38;;;;;;;7.90;5.70;;;0.20;45.00;;;;;;4980976;28;20215;-49
2023/03/09 01:27:03;;;;;;;10.30;5.63;;;0.20;56.10;;;;;;4980146;28;20661;-50
2023/03/09 01:29:29;;;;;;;9.07;5.57;;;0.20;58.00;;;;;;4982874;28;20541;-50
2023/03/09 01:31:55;;;;;;;7.77;5.90;;;0.20;61.10;;;;;;4977582;28;20467;-49
2023/03/09 01:34:20;;;;;;;8.40;5.70;;;0.10;68.60;;;;;;4977330;28;20653;-49
2023/03/09 01:36:46;;;;;;;14.00;6.80;;;0.20;81.70;;;;;;4983202;28;20189;-49
2023/03/09 01:39:12;;;;;;;11.23;6.30;;;0.10;82.30;;;;;;4977042;28;20274;-51
2023/03/09 01:41:37;;;;;;;10.37;5.97;;;0.20;92.00;;;;;;4977010;28;20196;-50
2023/03/09 01:44:03;;;;;;;10.50;6.00;;;0.10;97.00;;;;;;4977279;28;20196;-49
2023/03/09 01:46:32;;;;;;;9.33;5.63;;;0.10;99.90;;;;;;4977154;28;20217;-50
2023/03/09 01:49:24;;;;;;;14.67;5.53;;;0.10;99.90;;;;;;4976331;28;20231;-50
2023/03/09 01:51:55;;;;;;;10.70;5.70;;;0.10;99.90;;;;;;4976443;28;20467;-50
2023/03/09 01:54:24;;;;;;;7.50;5.23;;;0.10;99.90;;;;;;4975935;28;20855;-50
2023/03/09 01:56:53;;;;;;;7.37;5.57;;;0.10;99.90;;;;;;4980084;28;20448;-49
2023/03/09 01:59:19;;;;;;;8.93;5.30;;;0.10;99.90;;;;;;4981502;28;20452;-49
2023/03/09 02:01:45;;;;;;;14.43;6.67;;;0.10;99.90;;;;;;4978284;28;20441;-50
2023/03/09 02:04:18;;;;;;;8.57;6.00;;;0.10;99.90;;;;;;4978085;28;20441;-50
2023/03/09 02:06:44;;;;;;;9.10;6.40;;;0.10;99.90;;;;;;4977901;28;20225;-50
2023/03/09 02:09:39;;;;;;;9.70;6.50;;;0.00;99.90;;;;;;4980633;28;20444;-49
2023/03/09 02:12:07;;;;;;;14.53;6.87;;;0.00;99.90;;;;;;4976426;28;20208;-49
2023/03/09 02:14:33;;;;;;;9.17;5.60;;;0.00;99.90;;;;;;4975890;28;20487;-50
2023/03/09 02:16:59;;;;;;;9.33;5.73;;;0.00;99.90;;;;;;4976534;28;20463;-49
2023/03/09 02:20:06;;;;;;;10.40;6.13;;;0.00;99.90;;;;;;4977829;28;20185;-49
2023/03/09 02:22:36;;;;;;;11.40;6.27;;;0.00;99.90;;;;;;4957365;28;20201;-50
2023/03/09 02:25:18;;;;;;;8.90;6.13;;;0.00;99.90;;;;;;4978988;28;21465;-49
2023/03/09 02:27:45;;;;;;;12.27;6.10;;;0.00;99.90;;;;;;4975193;28;20559;-50
2023/03/09 02:30:11;;;;;;;11.07;5.90;;;0.10;99.90;;;;;;4976757;28;20448;-50
2023/03/09 02:32:37;;;;;;;8.37;6.07;;;0.10;99.90;;;;;;4980224;28;20457;-49
2023/03/09 02:35:03;;;;;;;12.30;6.20;;;0.10;99.90;;;;;;4975380;28;20495;-50
2023/03/09 02:37:35;;;;;;;9.77;5.80;;;0.20;99.90;;;;;;4978991;28;20577;-49
2023/03/09 02:40:15;;;;;;;9.43;5.73;;;0.20;99.90;;;;;;4979513;28;20488;-49
2023/03/09 02:42:43;;;;;;;8.10;5.50;;;0.10;99.90;;;;;;4975289;28;20445;-51
2023/03/09 02:45:12;;;;;;;8.93;5.67;;;0.20;99.90;;;;;;4975334;28;20440;-49
2023/03/09 02:47:38;;;;;;;10.20;5.70;;;0.20;99.90;;;;;;4979932;28;20484;-49
2023/03/09 02:50:09;;;;;;;9.70;5.03;;;0.20;99.90;;;;;;4976692;28;20447;-49
2023/03/09 02:52:35;;;;;;;8.17;5.53;;;0.10;99.90;;;;;;4978409;28;20443;-50
2023/03/09 02:55:01;;;;;;;9.27;5.90;;;0.00;99.90;;;;;;4981546;28;20855;-49
2023/03/09 02:57:27;;;;;;;11.30;6.60;;;0.00;99.90;;;;;;4976885;28;20438;-50
2023/03/09 02:59:52;;;;;;;10.10;5.77;;;0.00;99.90;;;;;;4975555;28;20209;-49
2023/03/09 03:02:18;;;;;;;10.60;6.00;;;0.00;99.90;;;;;;4979465;28;20231;-50
2023/03/09 03:04:44;;;;;;;10.07;5.40;;;0.00;99.90;;;;;;4975675;28;20200;-50
2023/03/09 03:07:09;;;;;;;7.67;5.53;;;0.00;99.90;;;;;;4975388;28;20669;-49
2023/03/09 03:09:35;;;;;;;10.90;6.40;;;0.00;99.90;;;;;;4975774;28;20436;-49
2023/03/09 03:12:01;;;;;;;9.67;5.93;;;0.00;99.90;;;;;;4975264;28;20606;-49
2023/03/09 03:14:27;;;;;;;9.47;6.07;;;0.10;99.90;;;;;;4975171;28;20173;-50
2023/03/09 03:16:53;;;;;;;11.00;6.93;;;0.00;99.90;;;;;;4979080;28;20252;-50
2023/03/09 03:19:20;;;;;;;9.03;5.43;;;0.10;99.90;;;;;;4975395;28;20443;-49
2023/03/09 03:21:47;;;;;;;9.60;6.03;;;0.10;99.90;;;;;;4977637;28;20440;-49
2023/03/09 03:24:13;;;;;;;12.20;7.03;;;0.00;99.90;;;;;;4974986;28;20443;-50
2023/03/09 03:26:38;;;;;;;11.70;6.53;;;0.00;99.90;;;;;;4979151;28;20831;-50
2023/03/09 03:29:04;;;;;;;12.23;6.13;;;0.10;99.90;;;;;;4975310;28;20189;-49
2023/03/09 03:31:29;;;;;;;10.40;6.13;;;0.00;99.90;;;;;;4975350;28;20185;-50
2023/03/09 03:33:55;;;;;;;14.60;6.60;;;0.10;99.90;;;;;;4975479;28;20188;-50
2023/03/09 03:36:20;;;;;;;9.70;6.20;;;0.10;99.90;;;;;;4975007;28;20765;-49
2023/03/09 03:38:46;;;;;;;8.17;5.57;;;0.10;99.90;;;;;;4975270;28;20204;-49
2023/03/09 03:41:12;;;;;;;10.20;6.07;;;0.10;99.90;;;;;;4977333;28;20188;-50
2023/03/09 03:43:37;;;;;;;9.87;6.20;;;0.10;99.90;;;;;;4975030;28;20309;-51
2023/03/09 03:46:03;;;;;;;15.67;7.20;;;0.00;99.90;;;;;;4974431;28;20241;-50
2023/03/09 03:48:28;;;;;;;11.27;7.00;;;0.00;99.90;;;;;;4982347;28;20292;-50
2023/03/09 03:50:54;;;;;;;13.23;6.07;;;0.00;99.90;;;;;;4978534;28;20633;-50
2023/03/09 03:53:20;;;;;;;12.00;7.17;;;0.10;99.90;;;;;;4975654;28;20221;-50
2023/03/09 03:55:45;;;;;;;11.27;7.03;;;0.00;99.90;;;;;;4983158;28;20200;-50
2023/03/09 03:58:11;;;;;;;11.33;6.03;;;0.00;99.90;;;;;;4978343;28;20543;-51
2023/03/09 04:00:36;;;;;;;11.17;6.77;;;0.00;99.90;;;;;;4981669;28;20216;-50
2023/03/09 04:03:02;;;;;;;11.47;6.53;;;0.10;99.90;;;;;;4974702;28;20321;-50
2023/03/09 04:05:28;;;;;;;13.23;6.67;;;0.10;99.90;;;;;;4975374;28;20196;-50
2023/03/09 04:07:54;;;;;;;13.00;7.57;;;0.00;99.90;;;;;;4977871;28;20228;-50
2023/03/09 04:10:19;;;;;;;17.10;9.40;;;0.10;99.90;;;;;;4974911;28;20440;-50
2023/03/09 04:12:45;;;;;;;15.33;8.23;;;0.10;99.90;;;;;;4978749;28;20202;-50
2023/03/09 04:15:11;;;;;;;11.60;7.60;;;0.20;99.90;;;;;;4975681;28;20283;-50
2023/03/09 04:17:36;;;;;;;16.13;7.30;;;0.10;99.90;;;;;;4978917;28;20623;-51
2023/03/09 04:20:04;;;;;;;10.70;6.73;;;0.00;99.90;;;;;;4974561;28;20190;-50
2023/03/09 04:22:30;;;;;;;11.33;6.87;;;0.00;99.90;;;;;;4979679;28;20196;-50
2023/03/09 04:24:55;;;;;;;14.13;7.27;;;0.00;99.90;;;;;;4978695;28;20798;-50
2023/03/09 04:27:21;;;;;;;12.90;7.77;;;0.00;99.90;;;;;;4982225;28;20468;-50
2023/03/09 04:29:46;;;;;;;10.70;6.80;;;0.00;99.90;;;;;;4982633;28;20671;-51
2023/03/09 04:32:12;;;;;;;14.00;7.63;;;0.20;99.90;;;;;;4984514;28;20188;-51
2023/03/09 04:34:38;;;;;;;14.20;8.10;;;0.10;99.90;;;;;;4983054;28;20605;-50
2023/03/09 04:37:03;;;;;;;11.10;7.10;;;0.10;99.90;;;;;;4978917;28;20196;-50
2023/03/09 04:39:29;;;;;;;16.00;7.60;;;0.10;99.90;;;;;;4980119;28;20247;-50
2023/03/09 04:41:54;;;;;;;11.00;7.17;;;0.10;99.90;;;;;;4983568;28;20210;-50
2023/03/09 04:44:20;;;;;;;14.60;8.17;;;0.10;1.00;;;;;;4978245;28;20189;-50
2023/03/09 04:46:46;;;;;;;14.07;7.67;;;0.10;1.00;;;;;;4980830;28;20692;-50
2023/03/09 04:49:11;;;;;;;13.27;7.73;;;0.10;1.00;;;;;;4977660;28;20194;-51
2023/03/09 04:51:37;;;;;;;12.83;7.80;;;0.10;1.00;;;;;;4981957;28;20196;-50
2023/03/09 04:54:02;;;;;;;13.60;8.23;;;0.10;1.00;;;;;;4980565;28;20565;-50
2023/03/09 04:56:28;;;;;;;16.07;8.83;;;0.10;1.00;;;;;;4981172;28;20191;-50
2023/03/09 04:58:55;;;;;;;19.63;7.90;;;0.10;1.00;;;;;;4982081;28;20196;-50
2023/03/09 05:01:20;;;;;;;14.93;7.73;;;0.10;1.00;;;;;;4979400;28;20225;-49
2023/03/09 05:03:46;;;;;;;13.93;7.93;;;0.10;1.00;;;;;;4979333;28;20492;-49
2023/03/09 05:06:12;;;;;;;17.80;8.73;;;0.10;1.00;;;;;;4976879;28;20209;-50
2023/03/09 05:08:38;;;;;;;15.57;8.50;;;0.20;1.00;;;;;;4982544;28;20205;-49
2023/03/09 05:11:03;;;;;;;12.00;8.17;;;0.20;1.00;;;;;;4980112;28;20278;-49
2023/03/09 05:13:29;;;;;;;12.03;7.70;;;0.20;1.00;;;;;;4977161;28;20243;-51
2023/03/09 05:15:55;;;;;;;12.87;8.40;;;0.20;1.00;;;;;;4983334;28;20193;-50
2023/03/09 05:18:20;;;;;;;17.90;8.47;;;0.20;1.00;;;;;;4978692;28;20186;-49
2023/03/09 05:20:46;;;;;;;12.50;7.83;;;0.20;1.00;;;;;;4976700;28;20243;-50
2023/03/09 05:23:12;;;;;;;13.07;8.40;;;0.20;1.00;;;;;;4981169;28;20640;-50
2023/03/09 05:25:38;;;;;;;15.63;8.73;;;0.20;1.00;;;;;;4979846;28;20550;-50
2023/03/09 05:28:04;;;;;;;13.10;7.67;;;0.20;1.00;;;;;;4979929;28;20472;-50
2023/03/09 05:30:30;;;;;;;15.97;8.83;;;0.20;1.00;;;;;;4976850;28;20680;-49
2023/03/09 05:32:56;;;;;;;15.93;8.70;;;0.20;1.00;;;;;;4978332;28;20515;-49
2023/03/09 05:35:22;;;;;;;15.23;8.13;;;0.20;1.00;;;;;;4980482;28;20476;-50
2023/03/09 05:37:48;;;;;;;16.10;9.40;;;0.20;1.00;;;;;;4978115;28;20690;-50
2023/03/09 05:40:14;;;;;;;17.27;9.60;;;0.20;1.00;;;;;;4983752;28;20200;-50
2023/03/09 05:42:41;;;;;;;16.73;9.70;;;0.20;1.00;;;;;;4985610;28;20192;-49
2023/03/09 05:45:08;;;;;;;17.40;9.80;;;0.20;1.00;;;;;;4978044;28;20474;-50
2023/03/09 05:47:34;;;;;;;18.07;9.23;;;0.20;14.70;;;;;;4982593;28;20964;-49
2023/03/09 05:50:00;;;;;;;17.37;10.27;;;0.20;61.40;;;;;;4979895;28;20444;-49
2023/03/09 05:52:26;;;;;;;17.97;9.57;;;0.20;99.90;;;;;;4977559;28;20259;-50
2023/03/09 05:54:51;;;;;;;20.13;10.90;;;0.20;99.90;;;;;;4976822;28;20280;-50
2023/03/09 05:57:17;;;;;;;19.23;10.00;;;0.10;99.90;;;;;;4977683;28;20189;-49
2023/03/09 05:59:42;;;;;;;19.53;10.30;;;0.20;99.90;;;;;;4978963;28;20189;-50
2023/03/09 06:02:08;;;;;;;17.60;10.00;;;0.10;99.90;;;;;;4981652;28;20189;-49
2023/03/09 06:04:34;;;;;;;19.40;9.50;;;0.10;99.90;;;;;;4977120;28;20312;-49
2023/03/09 06:07:00;;;;;;;21.90;10.00;;;0.10;99.90;;;;;;4976393;28;20259;-49
2023/03/09 06:09:25;;;;;;;19.83;10.67;;;0.10;99.90;;;;;;4979817;28;20937;-50
2023/03/09 06:11:51;;;;;;;20.30;10.40;;;0.10;1.00;;;;;;4980336;28;20196;-49
2023/03/09 06:14:16;;;;;;;18.30;10.23;;;0.00;1.00;;;;;;4979520;28;20185;-49
2023/03/09 06:16:42;;;;;;;23.60;10.33;;;0.00;1.00;;;;;;4984589;28;20195;-50
2023/03/09 06:19:08;;;;;;;19.10;10.10;;;0.00;1.00;;;;;;4985315;28;20552;-49
2023/03/09 06:21:34;;;;;;;18.17;10.07;;;0.00;1.00;;;;;;4988758;28;20189;-49
2023/03/09 06:24:00;;;;;;;16.73;9.63;;;0.10;1.00;;;;;;4975893;28;20633;-49
2023/03/09 06:26:25;;;;;;;18.03;10.13;;;0.10;1.00;;;;;;4980486;28;20478;-49
2023/03/09 06:28:51;;;;;;;20.23;10.27;;;0.10;1.00;;;;;;4978711;28;20545;-49
2023/03/09 06:31:17;;;;;;;23.80;10.90;;;0.10;1.00;;;;;;4981470;28;20668;-50
2023/03/09 06:33:44;;;;;;;14.80;9.50;;;0.10;1.00;;;;;;4986690;28;20661;-50
2023/03/09 06:36:13;;;;;;;21.43;11.60;;;0.20;1.00;;;;;;4980769;28;20484;-49
2023/03/09 06:38:39;;;;;;;21.67;10.17;;;0.20;1.00;;;;;;4979799;28;20446;-50
2023/03/09 06:41:05;;;;;;;19.53;10.93;;;0.30;1.00;;;;;;4981528;28;20439;-50
2023/03/09 06:43:30;;;;;;;18.20;10.73;;;0.30;1.00;;;;;;4980059;28;20441;-49
2023/03/09 06:45:56;;;;;;;23.03;12.60;;;0.30;1.00;;;;;;4974822;28;20547;-49
2023/03/09 06:48:22;;;;;;;23.37;11.20;;;0.40;1.00;;;;;;4977522;28;20196;-50
2023/03/09 06:50:50;;;;;;;21.27;10.93;;;0.40;1.00;;;;;;4979596;28;20182;-49
2023/03/09 06:53:16;;;;;;;20.87;10.97;;;0.50;1.00;;;;;;4982016;28;20207;-49
2023/03/09 06:55:41;;;;;;;23.83;12.10;;;0.60;1.00;;;;;;4978026;28;20444;-50
2023/03/09 06:58:07;;;;;;;20.17;11.23;;;0.60;1.00;;;;;;4981891;28;20193;-49
2023/03/09 07:00:38;;;;;;;23.63;11.37;;;0.60;99.90;;;;;;4981293;28;20279;-49
2023/03/09 07:03:05;;;;;;;22.60;11.03;;;0.70;99.90;;;;;;4984814;28;20276;-49
2023/03/09 07:05:31;;;;;;;21.17;11.07;;;0.70;99.90;;;;;;4977177;28;20448;-50
2023/03/09 07:07:57;;;;;;;19.80;10.73;;;0.80;99.90;;;;;;4982932;28;20511;-49
2023/03/09 07:10:22;;;;;;;19.20;11.50;;;0.80;99.90;;;;;;4975423;28;20468;-49
2023/03/09 07:12:48;;;;;;;19.93;11.07;;;0.90;98.00;;;;;;4976132;28;20203;-50
2023/03/09 07:15:14;;;;;;;19.17;11.07;;;0.90;1.00;;;;;;4977094;28;20189;-50
2023/03/09 07:17:42;;;;;;;22.27;11.07;;;1.00;1.00;;;;;;4976552;28;20296;-51
2023/03/09 07:20:11;;;;;;;26.40;11.17;;;1.10;1.00;;;;;;4977841;28;21276;-50
2023/03/09 07:22:37;;;;;;;21.40;11.60;;;1.20;1.00;;;;;;4978909;28;20444;-50
2023/03/09 07:25:04;;;;;;;20.70;10.80;;;1.30;1.00;;;;;;4977172;28;20786;-51
2023/03/09 07:27:30;;;;;;;20.10;11.73;;;1.40;1.00;;;;;;4978164;28;20225;-50
2023/03/09 07:29:56;;;;;;;22.03;11.40;;;1.50;1.00;;;;;;4978184;28;20439;-50
2023/03/09 07:32:22;;;;;;;21.33;11.50;;;1.60;1.00;;;;;;4975455;28;20477;-51
2023/03/09 07:34:47;;;;;;;19.23;11.37;;;1.70;1.00;;;;;;4977272;28;20536;-50
2023/03/09 07:37:13;;;;;;;24.33;12.13;;;1.90;99.90;;;;;;4977209;28;21023;-50
2023/03/09 07:39:39;;;;;;;20.53;11.70;;;2.00;99.90;;;;;;4974420;28;20213;-51
2023/03/09 07:42:05;;;;;;;22.63;11.10;;;2.00;99.90;;;;;;4976662;28;20237;-51
2023/03/09 07:44:30;;;;;;;20.47;11.40;;;2.10;99.90;;;;;;4976305;28;20188;-51
2023/03/09 07:46:56;;;;;;;19.23;10.70;;;2.20;99.90;;;;;;4980365;28;21005;-49
2023/03/09 07:49:22;;;;;;;30.73;11.80;;;2.30;99.90;;;;;;4974500;28;20193;-50
2023/03/09 07:51:48;;;;;;;31.80;12.07;;;2.30;99.90;;;;;;4974754;28;20200;-50
2023/03/09 07:54:14;;;;;;;22.67;11.70;;;2.30;99.90;;;;;;4977907;28;20550;-51
2023/03/09 07:56:40;;;;;;;27.67;13.17;;;2.40;99.90;;;;;;4980596;28;20188;-50
2023/03/09 07:59:05;;;;;;;20.43;10.90;;;2.50;96.10;;;;;;4981658;28;20446;-50
2023/03/09 08:01:32;;;;;;;17.37;9.80;;;2.60;73.60;;;;;;4981299;28;20198;-52
2023/03/09 08:03:58;;;;;;;24.33;10.97;;;2.60;58.20;;;;;;4986134;28;20243;-51
2023/03/09 08:06:25;;;;;;;22.70;12.77;;;2.60;32.20;;;;;;4985718;28;20477;-51
2023/03/09 08:08:51;;;;;;;23.60;12.50;;;2.70;38.00;;;;;;4985664;28;20487;-51
2023/03/09 08:11:17;;;;;;;22.33;11.57;;;2.90;46.90;;;;;;4982344;28;20444;-51
2023/03/09 08:13:43;;;;;;;17.17;10.40;;;3.00;26.00;;;;;;4978415;28;20443;-51
2023/03/09 08:16:10;;;;;;;22.13;11.43;;;3.10;19.70;;;;;;4979445;28;20447;-50
2023/03/09 08:18:36;;;;;;;20.20;11.27;;;3.20;1.00;;;;;;4978692;28;20204;-50
2023/03/09 08:21:10;;;;;;;21.27;11.10;;;3.20;1.00;;;;;;4978553;28;20820;-50
2023/03/09 08:23:39;;;;;;;22.40;12.10;;;3.40;1.00;;;;;;4982978;28;20203;-50
2023/03/09 08:26:06;;;;;;;18.70;10.47;;;3.60;1.00;;;;;;4978568;28;20452;-51
2023/03/09 08:28:32;;;;;;;19.43;11.30;;;3.70;1.00;;;;;;4981628;28;20436;-50
2023/03/09 08:30:58;;;;;;;19.90;11.30;;;4.00;1.00;;;;;;4985842;28;20450;-51
2023/03/09 08:33:25;;;;;;;19.70;10.53;;;4.30;1.00;;;;;;4978990;28;20515;-51
2023/03/09 08:35:50;;;;;;;19.20;10.77;;;4.60;1.00;;;;;;4978025;28;20267;-50
2023/03/09 08:38:16;;;;;;;21.37;10.90;;;5.20;1.00;;;;;;4978955;28;20470;-50
2023/03/09 08:40:43;;;;;;;15.93;9.70;;;5.60;1.00;;;;;;4979341;28;20652;-51
2023/03/09 08:43:08;;;;;;;18.20;9.53;;;5.40;1.00;;;;;;4979073;28;20188;-50
2023/03/09 08:45:34;;;;;;;18.60;9.63;;;5.60;1.00;;;;;;4977678;28;20532;-50
2023/03/09 08:48:00;;;;;;;19.03;9.40;;;5.60;1.00;;;;;;4982168;28;20224;-50
2023/03/09 08:50:25;;;;;;;15.23;9.37;;;5.40;1.00;;;;;;4980294;28;20255;-50
2023/03/09 08:52:51;;;;;;;17.50;10.07;;;6.00;1.00;;;;;;4978682;28;20858;-50
2023/03/09 08:55:17;;;;;;;17.97;10.00;;;7.00;1.00;;;;;;4981516;28;20187;-50
2023/03/09 08:57:42;;;;;;;15.63;8.30;;;8.00;1.00;;;;;;4982138;28;20650;-51
2023/03/09 09:00:10;;;;;;;11.97;8.53;;;8.00;1.00;;;;;;4977798;28;20275;-50
2023/03/09 09:02:36;;;;;;;16.63;8.70;;;8.20;1.00;;;;;;4981203;28;20202;-51
2023/03/09 09:05:03;;;;;;;14.33;7.97;;;8.50;1.00;;;;;;4978746;28;20980;-50
2023/03/09 09:07:29;;;;;;;16.20;8.47;;;8.70;1.00;;;;;;4979941;28;20488;-51
2023/03/09 09:09:55;;;;;;;14.30;8.27;;;8.40;1.00;;;;;;4986451;28;20440;-51
2023/03/09 09:12:21;;;;;;;12.17;8.13;;;7.90;1.00;;;;;;4983262;28;20522;-51
2023/03/09 09:14:47;;;;;;;16.87;8.47;;;7.50;1.00;;;;;;4977318;28;20437;-50
2023/03/09 09:17:13;;;;;;;10.80;7.33;;;7.30;1.00;;;;;;4977057;28;20436;-50
2023/03/09 09:19:39;;;;;;;13.47;8.40;;;7.10;1.00;;;;;;4979958;28;20186;-51
2023/03/09 09:22:06;;;;;;;11.57;7.80;;;6.90;1.00;;;;;;4979979;28;20453;-51
2023/03/09 09:24:35;;;;;;;13.80;7.20;;;6.70;1.00;;;;;;4977963;28;20437;-51
2023/03/09 09:27:00;;;;;;;13.23;7.27;;;6.90;1.00;;;;;;4978091;28;20493;-50
2023/03/09 09:29:26;;;;;;;14.13;7.63;;;7.10;1.00;;;;;;4978682;28;20434;-51
2023/03/09 09:31:52;;;;;;;11.83;7.83;;;7.30;1.00;;;;;;4977547;28;20195;-50
2023/03/09 09:34:18;;;;;;;13.37;7.60;;;7.10;1.00;;;;;;4979068;28;20542;-50
2023/03/09 09:36:45;;;;;;;11.03;7.70;;;6.90;1.00;;;;;;4976853;28;20477;-51
2023/03/09 09:39:14;;;;;;;14.80;8.73;;;6.80;1.00;;;;;;4981422;28;20443;-50
2023/03/09 09:41:41;;;;;;;22.93;8.57;;;6.70;1.00;;;;;;4978538;28;20459;-50
2023/03/09 09:44:15;;;;;;;12.10;7.83;;;6.50;1.00;;;;;;4976873;28;20969;-50
2023/03/09 09:46:41;;;;;;;13.63;7.90;;;6.50;1.00;;;;;;4978421;28;20488;-50
2023/03/09 09:49:14;;;;;;;13.23;8.43;;;6.10;1.00;;;;;;4982144;28;20440;-50
2023/03/09 09:51:49;;;;;;;18.70;8.30;;;6.20;1.00;;;;;;4977538;28;20849;-50
2023/03/09 09:54:36;;;;;;;13.73;7.87;;;6.30;1.00;;;;;;4976760;28;20957;-51
2023/03/09 09:57:18;;;;;;;11.83;7.00;;;6.30;1.00;;;;;;4977063;28;20436;-50
2023/03/09 10:00:19;;;;;;;12.77;8.53;;;6.20;1.00;;;;;;4977497;28;20437;-51
2023/03/09 10:03:17;;;;;;;17.07;8.53;;;6.00;1.00;;;;;;4966706;28;20891;-51
2023/03/09 10:05:55;;;;;;;45.07;22.93;;;5.90;1.00;;;;;;4969872;28;20915;-51
2023/03/09 10:08:54;;;;;;;17.20;10.57;;;5.80;1.00;;;;;;4977060;28;20474;-50
2023/03/09 10:11:35;;;;;;;15.70;8.37;;;5.70;1.00;;;;;;4977164;28;20452;-50
2023/03/09 10:14:21;;;;;;;29.43;14.57;;;5.80;1.00;;;;;;4977035;28;20503;-51
2023/03/09 10:17:08;;;;;;;12.50;7.70;;;5.70;1.00;;;;;;4975910;28;20448;-50
2023/03/09 10:19:41;;;;;;;11.90;7.27;;;5.70;1.00;;;;;;4977793;28;20499;-49
2023/03/09 10:22:12;;;;;;;16.60;8.90;;;5.80;1.00;;;;;;4979909;28;20846;-50
2023/03/09 10:24:43;;;;;;;13.17;8.13;;;5.60;1.00;;;;;;4980883;28;20442;-50
2023/03/09 10:27:17;;;;;;;13.47;8.03;;;5.60;1.00;;;;;;4976611;28;20994;-49
2023/03/09 10:30:04;;;;;;;15.10;9.00;;;5.60;1.00;;;;;;4979140;28;20971;-50
2023/03/09 10:32:47;;;;;;;14.10;7.90;;;5.60;1.00;;;;;;4976473;28;20948;-50
2023/03/09 10:35:45;;;;;;;15.13;7.90;;;5.60;1.00;;;;;;4975737;28;20839;-50
2023/03/09 10:38:18;;;;;;;13.83;8.33;;;5.60;1.00;;;;;;4977188;28;20583;-50
2023/03/09 10:40:47;;;;;;;14.07;7.97;;;5.50;1.00;;;;;;4976569;28;20498;-51
2023/03/09 10:43:30;;;;;;;10.03;7.27;;;5.60;1.00;;;;;;4975995;28;20432;-51
2023/03/09 10:46:07;;;;;;;13.50;7.50;;;5.70;1.00;;;;;;4979474;28;20960;-50
2023/03/09 10:48:32;;;;;;;15.57;8.50;;;5.70;1.00;;;;;;4979088;28;20551;-49
2023/03/09 10:51:00;;;;;;;12.20;7.00;;;5.70;1.00;;;;;;4978890;28;21030;-49
2023/03/09 10:53:31;;;;;;;14.60;7.60;;;5.80;1.00;;;;;;4976195;28;20194;-50
2023/03/09 10:56:27;;;;;;;9.20;6.47;;;5.80;1.00;;;;;;4976429;28;20496;-50
2023/03/09 10:59:07;;;;;;;12.30;7.20;;;5.90;1.00;;;;;;4962008;28;20453;-50
2023/03/09 11:01:38;;;;;;;12.93;6.67;;;6.10;1.00;;;;;;4977439;28;20443;-50
2023/03/09 11:04:22;;;;;;;11.57;6.93;;;6.00;1.00;;;;;;4980156;28;20483;-49
2023/03/09 11:06:52;;;;;;;11.60;6.77;;;6.00;1.00;;;;;;4975096;28;20491;-50
2023/03/09 11:09:22;;;;;;;10.50;7.30;;;6.10;1.00;;;;;;4975645;28;20534;-50
2023/03/09 11:11:49;;;;;;;11.77;7.70;;;6.10;1.00;;;;;;4979234;28;20450;-50
2023/03/09 11:14:29;;;;;;;9.40;7.23;;;6.20;1.00;;;;;;4980421;28;20465;-50
2023/03/09 11:16:57;;;;;;;10.67;7.53;;;6.30;1.00;;;;;;4975195;28;20447;-50
2023/03/09 11:19:25;;;;;;;13.67;8.03;;;6.40;1.00;;;;;;4978333;28;20508;-50
2023/03/09 11:21:56;;;;;;;12.90;7.27;;;6.50;1.00;;;;;;4976736;28;20477;-50
2023/03/09 11:24:26;;;;;;;15.23;7.60;;;6.60;1.00;;;;;;4975404;28;20445;-50
2023/03/09 11:27:07;;;;;;;12.93;6.97;;;6.70;1.00;;;;;;4975407;28;20477;-51
2023/03/09 11:29:59;;;;;;;14.20;7.93;;;6.60;1.00;;;;;;4974314;28;20455;-50
2023/03/09 11:32:25;;;;;;;9.60;6.53;;;6.50;1.00;;;;;;4978802;28;20448;-51
2023/03/09 11:34:51;;;;;;;11.13;7.50;;;6.50;1.00;;;;;;4982520;28;20544;-51
2023/03/09 11:37:19;;;;;;;13.03;7.87;;;6.50;1.00;;;;;;4978561;28;20288;-51
2023/03/09 11:40:05;;;;;;;14.90;9.33;;;6.50;1.00;;;;;;4981715;28;20433;-51
2023/03/09 11:42:40;;;;;;;16.83;7.87;;;6.40;1.00;;;;;;4979317;28;20477;-51
2023/03/09 11:45:15;;;;;;;13.57;7.63;;;6.70;1.00;;;;;;4987157;28;20441;-50
2023/03/09 11:47:49;;;;;;;14.17;8.70;;;6.90;1.00;;;;;;4982698;28;20903;-50
2023/03/09 11:50:19;;;;;;;11.07;7.33;;;6.90;1.00;;;;;;4981794;28;20466;-50
2023/03/09 11:52:54;;;;;;;11.57;7.50;;;7.00;1.00;;;;;;4980234;28;20456;-50
2023/03/09 11:55:24;;;;;;;12.20;8.57;;;7.00;1.00;;;;;;4981649;28;20453;-50
2023/03/09 11:58:03;;;;;;;15.40;7.40;;;7.00;1.00;;;;;;4978903;28;20440;-50
2023/03/09 12:00:32;;;;;;;10.67;7.60;;;6.80;1.00;;;;;;4980232;28;20432;-49
2023/03/09 12:03:10;;;;;;;13.30;7.80;;;6.70;1.00;;;;;;4982588;28;20470;-50
2023/03/09 12:05:41;;;;;;;12.83;7.90;;;6.60;1.00;;;;;;4978093;28;20995;-51
2023/03/09 12:08:21;;;;;;;17.73;7.43;;;6.60;1.00;;;;;;4980080;28;20880;-50
2023/03/09 12:11:00;;;;;;;12.20;8.00;;;7.10;1.00;;;;;;4978483;28;20472;-50
2023/03/09 12:13:40;;;;;;;16.73;8.80;;;7.20;1.00;;;;;;4979289;28;20441;-49
2023/03/09 12:16:22;;;;;;;17.57;8.23;;;7.00;1.00;;;;;;4978610;28;20594;-50
2023/03/09 12:19:10;;;;;;;14.23;7.20;;;7.00;1.00;;;;;;4979817;28;20440;-50
2023/03/09 12:21:40;;;;;;;10.10;7.10;;;6.90;1.00;;;;;;4978960;28;20532;-50
2023/03/09 12:24:28;;;;;;;10.60;7.70;;;6.80;1.00;;;;;;4981204;28;20440;-50
2023/03/09 12:27:10;;;;;;;8.70;6.40;;;6.70;1.00;;;;;;4978806;28;20518;-50
2023/03/09 12:29:59;;;;;;;17.33;12.77;;;6.60;1.00;;;;;;4980587;28;20445;-50
2023/03/09 12:32:24;;;;;;;12.93;8.30;;;6.50;1.00;;;;;;4971529;28;20552;-50
2023/03/09 12:34:55;;;;;;;11.50;8.27;;;6.50;1.00;;;;;;4979904;28;20574;-50
2023/03/09 12:37:35;;;;;;;9.93;6.57;;;6.70;1.00;;;;;;4984583;28;20242;-50
2023/03/09 12:40:24;;;;;;;10.83;7.07;;;6.70;1.00;;;;;;4986024;28;20554;-50
2023/03/09 12:42:58;;;;;;;10.77;7.40;;;6.50;1.00;;;;;;4980752;28;20450;-50
2023/03/09 12:45:27;;;;;;;13.50;8.13;;;6.60;1.00;;;;;;4979121;28;20441;-50
2023/03/09 12:48:07;;;;;;;11.03;8.23;;;6.70;1.00;;;;;;4978608;28;20499;-50
2023/03/09 12:50:42;;;;;;;10.37;7.40;;;6.80;1.00;;;;;;4998204;28;20458;-50
2023/03/09 12:53:10;;;;;;;10.43;7.50;;;6.90;1.00;;;;;;4981753;28;20445;-51
2023/03/09 12:55:36;;;;;;;9.70;6.90;;;7.20;1.00;;;;;;4979005;28;20460;-49
2023/03/09 12:58:22;;;;;;;10.77;7.70;;;7.00;1.00;;;;;;4980053;28;20461;-50
2023/03/09 13:01:08;;;;;;;15.60;8.60;;;6.90;1.00;;;;;;4977771;28;20215;-50
2023/03/09 13:03:44;;;;;;;11.53;7.20;;;6.70;1.00;;;;;;4980277;28;20462;-49